sensor_id;sensor_type;location;lat;lon;timestamp;P1;P2;P0
65574;PMS5003;52216;54.942;73.394;2022-09-09T00:00:11;1.00;1.00;0.00
65574;PMS5003;52216;54.942;73.394;2022-09-09T00:03:24;3.50;2.50;0.00
65574;PMS5003;52216;54.942;73.394;2022-09-09T00:10:12;2.00;2.00;0.00
65574;PMS5003;52216;54.942;73.394;2022-09-09T00:13:19;2.00;1.25;0.00
65574;PMS5003;52216;54.942;73.394;2022-09-09T00:16:36;3.00;2.00;0.00
65574;PMS5003;52216;54.942;73.394;2022-09-09T00:22:47;4.50;4.00;0.00
65574;PMS5003;52216;54.942;73.394;2022-09-09T00:32:16;2.00;2.00;0.00
65574;PMS5003;52216;54.942;73.394;2022-09-09T00:35:23;2.00;1.00;0.00
65574;PMS5003;52216;54.942;73.394;2022-09-09T00:58:15;5.00;5.00;2.00
65574;PMS5003;52216;54.942;73.394;2022-09-09T01:01:24;9.00;8.00;4.25
65574;PMS5003;52216;54.942;73.394;2022-09-09T01:04:29;17.67;14.67;9.00
65574;PMS5003;52216;54.942;73.394;2022-09-09T01:07:35;21.00;17.00;8.00
65574;PMS5003;52216;54.942;73.394;2022-09-09T01:10:50;19.00;16.75;6.00
65574;PMS5003;52216;54.942;73.394;2022-09-09T01:14:01;17.00;16.00;7.00
65574;PMS5003;52216;54.942;73.394;2022-09-09T01:17:23;16.50;16.50;8.00
65574;PMS5003;52216;54.942;73.394;2022-09-09T01:20:53;16.00;16.00;5.00
65574;PMS5003;52216;54.942;73.394;2022-09-09T01:25:01;15.25;14.00;7.00
65574;PMS5003;52216;54.942;73.394;2022-09-09T01:27:48;15.50;13.00;7.00
65574;PMS5003;52216;54.942;73.394;2022-09-09T01:30:57;16.33;15.00;7.00
65574;PMS5003;52216;54.942;73.394;2022-09-09T01:34:14;18.00;15.00;6.00
65574;PMS5003;52216;54.942;73.394;2022-09-09T01:37:29;15.00;12.00;4.67
65574;PMS5003;52216;54.942;73.394;2022-09-09T01:40:31;8.50;6.25;3.00
65574;PMS5003;52216;54.942;73.394;2022-09-09T01:43:39;5.00;5.00;2.00
65574;PMS5003;52216;54.942;73.394;2022-09-09T01:46:52;5.00;5.00;1.00
65574;PMS5003;52216;54.942;73.394;2022-09-09T01:49:58;4.00;4.00;1.00
65574;PMS5003;52216;54.942;73.394;2022-09-09T01:53:03;5.00;4.00;1.25
65574;PMS5003;52216;54.942;73.394;2022-09-09T01:56:15;5.75;4.00;1.00
65574;PMS5003;52216;54.942;73.394;2022-09-09T02:02:56;4.00;3.00;2.00
65574;PMS5003;52216;54.942;73.394;2022-09-09T02:09:31;5.00;4.00;2.00
65574;PMS5003;52216;54.942;73.394;2022-09-09T02:12:35;5.00;4.00;2.00
65574;PMS5003;52216;54.942;73.394;2022-09-09T02:18:47;5.00;5.00;1.50
65574;PMS5003;52216;54.942;73.394;2022-09-09T02:21:53;6.00;6.00;1.00
65574;PMS5003;52216;54.942;73.394;2022-09-09T02:24:57;6.00;6.00;2.00
65574;PMS5003;52216;54.942;73.394;2022-09-09T02:28:14;5.75;5.50;1.00
65574;PMS5003;52216;54.942;73.394;2022-09-09T02:31:20;5.25;3.50;1.00
65574;PMS5003;52216;54.942;73.394;2022-09-09T02:34:36;5.00;5.00;2.00
65574;PMS5003;52216;54.942;73.394;2022-09-09T02:37:42;5.00;4.00;2.00
65574;PMS5003;52216;54.942;73.394;2022-09-09T02:40:48;6.00;6.00;3.00
65574;PMS5003;52216;54.942;73.394;2022-09-09T02:43:51;4.00;4.00;2.00
65574;PMS5003;52216;54.942;73.394;2022-09-09T02:53:14;4.00;3.00;2.00
65574;PMS5003;52216;54.942;73.394;2022-09-09T02:56:21;4.00;4.00;1.00
65574;PMS5003;52216;54.942;73.394;2022-09-09T02:59:25;3.00;3.00;1.00
65574;PMS5003;52216;54.942;73.394;2022-09-09T03:02:30;2.50;2.50;1.00
65574;PMS5003;52216;54.942;73.394;2022-09-09T03:05:38;4.75;3.75;1.00
65574;PMS5003;52216;54.942;73.394;2022-09-09T03:08:41;3.25;3.25;1.00
65574;PMS5003;52216;54.942;73.394;2022-09-09T03:11:46;4.00;3.25;0.00
65574;PMS5003;52216;54.942;73.394;2022-09-09T03:14:51;3.75;3.75;0.00
65574;PMS5003;52216;54.942;73.394;2022-09-09T03:17:54;6.25;6.00;0.25
65574;PMS5003;52216;54.942;73.394;2022-09-09T03:20:58;2.50;2.50;1.00
65574;PMS5003;52216;54.942;73.394;2022-09-09T03:24:02;6.00;5.00;1.00
65574;PMS5003;52216;54.942;73.394;2022-09-09T03:27:15;5.00;4.00;1.00
65574;PMS5003;52216;54.942;73.394;2022-09-09T03:30:19;4.00;3.00;0.00
65574;PMS5003;52216;54.942;73.394;2022-09-09T03:33:27;5.00;4.00;0.00
65574;PMS5003;52216;54.942;73.394;2022-09-09T03:36:31;4.00;4.00;2.00
65574;PMS5003;52216;54.942;73.394;2022-09-09T03:39:35;5.00;5.00;1.00
65574;PMS5003;52216;54.942;73.394;2022-09-09T03:42:42;3.00;3.00;1.00
65574;PMS5003;52216;54.942;73.394;2022-09-09T03:45:46;4.00;4.00;0.00
65574;PMS5003;52216;54.942;73.394;2022-09-09T03:48:52;2.00;2.00;0.00
65574;PMS5003;52216;54.942;73.394;2022-09-09T03:51:55;2.00;2.00;0.00
65574;PMS5003;52216;54.942;73.394;2022-09-09T03:54:59;4.00;1.75;0.00
65574;PMS5003;52216;54.942;73.394;2022-09-09T03:58:07;2.25;1.00;0.00
65574;PMS5003;52216;54.942;73.394;2022-09-09T04:01:11;1.00;1.00;0.00
65574;PMS5003;52216;54.942;73.394;2022-09-09T04:04:29;0.00;0.00;0.00
65574;PMS5003;52216;54.942;73.394;2022-09-09T04:07:31;0.00;0.00;0.00
65574;PMS5003;52216;54.942;73.394;2022-09-09T04:10:35;2.00;1.00;0.00
65574;PMS5003;52216;54.942;73.394;2022-09-09T04:13:41;1.00;1.00;0.00
65574;PMS5003;52216;54.942;73.394;2022-09-09T04:16:47;0.00;0.00;0.00
65574;PMS5003;52216;54.942;73.394;2022-09-09T04:19:51;0.00;0.00;0.00
65574;PMS5003;52216;54.942;73.394;2022-09-09T04:22:54;0.00;0.00;0.00
65574;PMS5003;52216;54.942;73.394;2022-09-09T04:25:58;0.00;0.00;0.00
65574;PMS5003;52216;54.942;73.394;2022-09-09T04:29:03;0.00;0.00;0.00
65574;PMS5003;52216;54.942;73.394;2022-09-09T04:32:06;0.50;0.00;0.00
65574;PMS5003;52216;54.942;73.394;2022-09-09T04:35:10;1.00;0.00;0.00
65574;PMS5003;52216;54.942;73.394;2022-09-09T04:38:23;0.00;0.00;0.00
65574;PMS5003;52216;54.942;73.394;2022-09-09T04:41:27;0.75;0.00;0.00
65574;PMS5003;52216;54.942;73.394;2022-09-09T04:44:30;0.00;0.00;0.00
65574;PMS5003;52216;54.942;73.394;2022-09-09T04:47:35;0.00;0.00;0.00
65574;PMS5003;52216;54.942;73.394;2022-09-09T04:50:43;0.00;0.00;0.00
65574;PMS5003;52216;54.942;73.394;2022-09-09T04:53:48;0.00;0.00;0.00
65574;PMS5003;52216;54.942;73.394;2022-09-09T04:56:54;0.00;0.00;0.00
65574;PMS5003;52216;54.942;73.394;2022-09-09T04:59:57;0.00;0.00;0.00
65574;PMS5003;52216;54.942;73.394;2022-09-09T05:03:04;0.00;0.00;0.00
65574;PMS5003;52216;54.942;73.394;2022-09-09T05:06:09;0.00;0.00;0.00
65574;PMS5003;52216;54.942;73.394;2022-09-09T05:09:13;0.00;0.00;0.00
65574;PMS5003;52216;54.942;73.394;2022-09-09T05:12:16;0.00;0.00;0.00
65574;PMS5003;52216;54.942;73.394;2022-09-09T05:15:26;0.00;0.00;0.00
65574;PMS5003;52216;54.942;73.394;2022-09-09T05:18:29;0.00;0.00;0.00
65574;PMS5003;52216;54.942;73.394;2022-09-09T05:21:32;0.00;0.00;0.00
65574;PMS5003;52216;54.942;73.394;2022-09-09T05:24:35;0.00;0.00;0.00
65574;PMS5003;52216;54.942;73.394;2022-09-09T05:27:40;0.00;0.00;0.00
65574;PMS5003;52216;54.942;73.394;2022-09-09T05:30:57;0.00;0.00;0.00
65574;PMS5003;52216;54.942;73.394;2022-09-09T05:34:00;0.00;0.00;0.00
65574;PMS5003;52216;54.942;73.394;2022-09-09T05:37:03;0.00;0.00;0.00
65574;PMS5003;52216;54.942;73.394;2022-09-09T05:40:08;0.00;0.00;0.00
65574;PMS5003;52216;54.942;73.394;2022-09-09T05:43:13;0.00;0.00;0.00
65574;PMS5003;52216;54.942;73.394;2022-09-09T05:46:17;0.00;0.00;0.00
65574;PMS5003;52216;54.942;73.394;2022-09-09T05:49:28;0.00;0.00;0.00
65574;PMS5003;52216;54.942;73.394;2022-09-09T05:52:31;0.00;0.00;0.00
65574;PMS5003;52216;54.942;73.394;2022-09-09T05:55:35;0.00;0.00;0.00
65574;PMS5003;52216;54.942;73.394;2022-09-09T05:58:40;1.00;0.00;0.00
65574;PMS5003;52216;54.942;73.394;2022-09-09T06:01:57;0.00;0.00;0.00
65574;PMS5003;52216;54.942;73.394;2022-09-09T06:05:06;0.25;0.00;0.00
65574;PMS5003;52216;54.942;73.394;2022-09-09T06:08:16;5.25;4.50;0.00
65574;PMS5003;52216;54.942;73.394;2022-09-09T06:11:20;2.75;2.75;1.00
65574;PMS5003;52216;54.942;73.394;2022-09-09T06:14:29;0.00;0.00;0.00
65574;PMS5003;52216;54.942;73.394;2022-09-09T06:17:36;0.00;0.00;0.00
65574;PMS5003;52216;54.942;73.394;2022-09-09T06:20:57;2.00;0.00;0.00
65574;PMS5003;52216;54.942;73.394;2022-09-09T06:24:00;0.00;0.00;0.00
65574;PMS5003;52216;54.942;73.394;2022-09-09T06:27:03;0.00;0.00;0.00
65574;PMS5003;52216;54.942;73.394;2022-09-09T06:30:11;0.00;0.00;0.00
65574;PMS5003;52216;54.942;73.394;2022-09-09T06:33:19;0.00;0.00;0.00
65574;PMS5003;52216;54.942;73.394;2022-09-09T06:36:23;0.00;0.00;0.00
65574;PMS5003;52216;54.942;73.394;2022-09-09T06:39:31;0.00;0.00;0.00
65574;PMS5003;52216;54.942;73.394;2022-09-09T06:42:35;0.75;0.00;0.00
65574;PMS5003;52216;54.942;73.394;2022-09-09T06:46:04;1.00;0.75;0.00
65574;PMS5003;52216;54.942;73.394;2022-09-09T06:49:09;0.00;0.00;0.00
65574;PMS5003;52216;54.942;73.394;2022-09-09T06:52:22;0.00;0.00;0.00
65574;PMS5003;52216;54.942;73.394;2022-09-09T06:55:27;0.00;0.00;0.00
65574;PMS5003;52216;54.942;73.394;2022-09-09T06:58:30;0.00;0.00;0.00
65574;PMS5003;52216;54.942;73.394;2022-09-09T07:01:46;0.00;0.00;0.00
65574;PMS5003;52216;54.942;73.394;2022-09-09T07:04:51;1.00;1.00;0.00
65574;PMS5003;52216;54.942;73.394;2022-09-09T07:07:54;1.00;1.00;0.00
65574;PMS5003;52216;54.942;73.394;2022-09-09T07:11:04;2.00;0.00;0.00
65574;PMS5003;52216;54.942;73.394;2022-09-09T07:14:12;0.00;0.00;0.00
65574;PMS5003;52216;54.942;73.394;2022-09-09T07:17:27;0.00;0.00;0.00
65574;PMS5003;52216;54.942;73.394;2022-09-09T07:20:32;0.00;0.00;0.00
65574;PMS5003;52216;54.942;73.394;2022-09-09T07:23:35;0.00;0.00;0.00
65574;PMS5003;52216;54.942;73.394;2022-09-09T07:26:41;0.00;0.00;0.00
65574;PMS5003;52216;54.942;73.394;2022-09-09T07:29:44;0.00;0.00;0.00
65574;PMS5003;52216;54.942;73.394;2022-09-09T07:32:50;0.00;0.00;0.00
65574;PMS5003;52216;54.942;73.394;2022-09-09T07:36:09;0.00;0.00;0.00
65574;PMS5003;52216;54.942;73.394;2022-09-09T07:39:23;0.00;0.00;0.00
65574;PMS5003;52216;54.942;73.394;2022-09-09T07:42:29;0.00;0.00;0.00
65574;PMS5003;52216;54.942;73.394;2022-09-09T07:45:33;0.00;0.00;0.00
65574;PMS5003;52216;54.942;73.394;2022-09-09T07:48:36;0.00;0.00;0.00
65574;PMS5003;52216;54.942;73.394;2022-09-09T07:51:49;0.00;0.00;0.00
65574;PMS5003;52216;54.942;73.394;2022-09-09T07:54:54;0.00;0.00;0.00
65574;PMS5003;52216;54.942;73.394;2022-09-09T07:58:00;0.00;0.00;0.00
65574;PMS5003;52216;54.942;73.394;2022-09-09T08:01:10;0.00;0.00;0.00
65574;PMS5003;52216;54.942;73.394;2022-09-09T08:04:20;0.00;0.00;0.00
65574;PMS5003;52216;54.942;73.394;2022-09-09T08:07:24;0.00;0.00;0.00
65574;PMS5003;52216;54.942;73.394;2022-09-09T08:10:30;0.00;0.00;0.00
65574;PMS5003;52216;54.942;73.394;2022-09-09T08:13:35;0.00;0.00;0.00
65574;PMS5003;52216;54.942;73.394;2022-09-09T08:16:45;1.00;0.00;0.00
65574;PMS5003;52216;54.942;73.394;2022-09-09T08:19:56;0.50;0.00;0.00
65574;PMS5003;52216;54.942;73.394;2022-09-09T08:23:02;2.00;1.00;0.00
65574;PMS5003;52216;54.942;73.394;2022-09-09T08:26:06;1.50;1.50;0.00
65574;PMS5003;52216;54.942;73.394;2022-09-09T08:29:12;2.00;1.50;0.00
65574;PMS5003;52216;54.942;73.394;2022-09-09T08:32:17;1.00;1.00;0.00
65574;PMS5003;52216;54.942;73.394;2022-09-09T08:35:22;1.00;1.00;0.00
65574;PMS5003;52216;54.942;73.394;2022-09-09T08:38:26;2.00;1.25;0.00
65574;PMS5003;52216;54.942;73.394;2022-09-09T08:51:19;2.00;2.00;0.00
65574;PMS5003;52216;54.942;73.394;2022-09-09T08:54:23;2.25;1.25;0.00
65574;PMS5003;52216;54.942;73.394;2022-09-09T08:57:26;2.25;1.50;0.00
65574;PMS5003;52216;54.942;73.394;2022-09-09T09:03:53;3.00;3.00;1.00
65574;PMS5003;52216;54.942;73.394;2022-09-09T09:13:13;3.25;3.25;0.25
65574;PMS5003;52216;54.942;73.394;2022-09-09T09:16:33;1.00;1.00;0.00
65574;PMS5003;52216;54.942;73.394;2022-09-09T09:19:40;4.00;4.00;0.00
65574;PMS5003;52216;54.942;73.394;2022-09-09T09:25:57;2.00;2.00;0.00
65574;PMS5003;52216;54.942;73.394;2022-09-09T09:29:12;2.50;2.50;0.00
65574;PMS5003;52216;54.942;73.394;2022-09-09T09:32:18;3.00;3.00;0.00
65574;PMS5003;52216;54.942;73.394;2022-09-09T09:35:23;3.00;3.00;0.00
65574;PMS5003;52216;54.942;73.394;2022-09-09T09:38:31;2.00;2.00;0.00
65574;PMS5003;52216;54.942;73.394;2022-09-09T09:41:46;2.00;2.00;0.00
65574;PMS5003;52216;54.942;73.394;2022-09-09T09:44:51;3.00;2.00;0.00
65574;PMS5003;52216;54.942;73.394;2022-09-09T09:48:06;2.25;2.00;0.00
65574;PMS5003;52216;54.942;73.394;2022-09-09T09:51:17;1.25;1.00;0.00
65574;PMS5003;52216;54.942;73.394;2022-09-09T09:54:31;2.50;2.50;0.00
65574;PMS5003;52216;54.942;73.394;2022-09-09T09:57:39;3.00;2.00;0.00
65574;PMS5003;52216;54.942;73.394;2022-09-09T10:00:51;3.00;3.00;0.00
65574;PMS5003;52216;54.942;73.394;2022-09-09T10:04:13;7.00;6.00;0.00
65574;PMS5003;52216;54.942;73.394;2022-09-09T10:07:19;4.50;4.50;1.00
65574;PMS5003;52216;54.942;73.394;2022-09-09T10:10:25;4.00;4.00;1.00
65574;PMS5003;52216;54.942;73.394;2022-09-09T10:20:18;5.50;4.50;0.50
65574;PMS5003;52216;54.942;73.394;2022-09-09T10:27:11;3.50;3.50;0.00
65574;PMS5003;52216;54.942;73.394;2022-09-09T10:36:26;3.00;3.00;0.00
65574;PMS5003;52216;54.942;73.394;2022-09-09T10:39:39;3.00;2.75;0.00
65574;PMS5003;52216;54.942;73.394;2022-09-09T10:42:43;4.00;4.00;1.75
65574;PMS5003;52216;54.942;73.394;2022-09-09T10:49:19;3.00;3.00;1.00
65574;PMS5003;52216;54.942;73.394;2022-09-09T10:55:51;4.25;4.25;1.25
65574;PMS5003;52216;54.942;73.394;2022-09-09T10:59:05;3.00;3.00;0.00
65574;PMS5003;52216;54.942;73.394;2022-09-09T11:02:14;4.25;4.25;0.25
65574;PMS5003;52216;54.942;73.394;2022-09-09T11:05:20;3.00;3.00;0.00
65574;PMS5003;52216;54.942;73.394;2022-09-09T11:08:24;6.00;4.50;0.50
65574;PMS5003;52216;54.942;73.394;2022-09-09T11:11:41;4.00;4.00;0.00
65574;PMS5003;52216;54.942;73.394;2022-09-09T11:17:55;3.00;3.00;1.00
65574;PMS5003;52216;54.942;73.394;2022-09-09T11:21:00;2.00;2.00;0.00
65574;PMS5003;52216;54.942;73.394;2022-09-09T11:24:52;3.00;3.00;0.00
65574;PMS5003;52216;54.942;73.394;2022-09-09T11:34:26;4.50;4.50;0.50
65574;PMS5003;52216;54.942;73.394;2022-09-09T11:40:40;2.00;1.00;0.00
65574;PMS5003;52216;54.942;73.394;2022-09-09T11:43:45;3.25;2.25;0.00
65574;PMS5003;52216;54.942;73.394;2022-09-09T11:46:49;2.00;2.00;0.00
65574;PMS5003;52216;54.942;73.394;2022-09-09T11:49:54;2.50;1.50;0.00
65574;PMS5003;52216;54.942;73.394;2022-09-09T11:53:04;4.00;3.00;0.00
65574;PMS5003;52216;54.942;73.394;2022-09-09T11:56:09;4.00;3.00;1.00
65574;PMS5003;52216;54.942;73.394;2022-09-09T11:59:29;4.50;3.00;1.00
65574;PMS5003;52216;54.942;73.394;2022-09-09T12:02:33;2.75;2.00;0.00
65574;PMS5003;52216;54.942;73.394;2022-09-09T12:05:39;2.00;2.00;0.00
65574;PMS5003;52216;54.942;73.394;2022-09-09T12:08:46;3.50;3.50;0.00
65574;PMS5003;52216;54.942;73.394;2022-09-09T12:11:50;5.00;4.00;2.00
65574;PMS5003;52216;54.942;73.394;2022-09-09T12:15:03;3.00;3.00;1.00
65574;PMS5003;52216;54.942;73.394;2022-09-09T12:18:26;5.75;5.75;1.00
65574;PMS5003;52216;54.942;73.394;2022-09-09T12:21:49;5.00;3.00;1.00
65574;PMS5003;52216;54.942;73.394;2022-09-09T12:28:16;1.00;1.00;0.00
65574;PMS5003;52216;54.942;73.394;2022-09-09T12:40:54;2.00;2.00;0.00
65574;PMS5003;52216;54.942;73.394;2022-09-09T12:44:05;3.00;3.00;0.00
65574;PMS5003;52216;54.942;73.394;2022-09-09T12:47:15;2.75;2.75;0.00
65574;PMS5003;52216;54.942;73.394;2022-09-09T12:50:29;2.00;2.00;0.00
65574;PMS5003;52216;54.942;73.394;2022-09-09T12:53:35;2.75;2.75;0.00
65574;PMS5003;52216;54.942;73.394;2022-09-09T12:56:40;5.00;5.00;1.00
65574;PMS5003;52216;54.942;73.394;2022-09-09T12:59:48;4.25;4.00;1.00
65574;PMS5003;52216;54.942;73.394;2022-09-09T13:02:55;6.00;6.00;1.00
65574;PMS5003;52216;54.942;73.394;2022-09-09T13:06:12;6.00;4.25;2.00
65574;PMS5003;52216;54.942;73.394;2022-09-09T13:09:20;5.00;5.00;3.00
65574;PMS5003;52216;54.942;73.394;2022-09-09T13:12:22;7.00;7.00;3.33
65574;PMS5003;52216;54.942;73.394;2022-09-09T13:15:34;6.00;6.00;3.00
65574;PMS5003;52216;54.942;73.394;2022-09-09T13:18:40;6.00;5.00;3.00
65574;PMS5003;52216;54.942;73.394;2022-09-09T13:21:43;7.00;6.00;3.00
65574;PMS5003;52216;54.942;73.394;2022-09-09T13:24:45;7.00;7.00;4.00
65574;PMS5003;52216;54.942;73.394;2022-09-09T13:27:53;7.00;7.00;5.00
65574;PMS5003;52216;54.942;73.394;2022-09-09T13:34:24;8.00;6.50;4.00
65574;PMS5003;52216;54.942;73.394;2022-09-09T13:37:37;8.50;8.00;4.00
65574;PMS5003;52216;54.942;73.394;2022-09-09T13:40:51;7.00;6.50;3.00
65574;PMS5003;52216;54.942;73.394;2022-09-09T13:43:55;9.75;8.00;5.00
65574;PMS5003;52216;54.942;73.394;2022-09-09T13:47:04;9.67;8.67;4.00
65574;PMS5003;52216;54.942;73.394;2022-09-09T13:50:23;8.00;8.00;4.00
65574;PMS5003;52216;54.942;73.394;2022-09-09T13:53:26;9.00;8.00;5.00
65574;PMS5003;52216;54.942;73.394;2022-09-09T13:56:40;9.25;8.25;5.00
65574;PMS5003;52216;54.942;73.394;2022-09-09T13:59:49;10.00;9.75;6.00
65574;PMS5003;52216;54.942;73.394;2022-09-09T14:02:57;13.67;12.00;6.00
65574;PMS5003;52216;54.942;73.394;2022-09-09T14:06:06;17.25;17.25;10.50
65574;PMS5003;52216;54.942;73.394;2022-09-09T14:09:12;18.00;17.75;11.25
65574;PMS5003;52216;54.942;73.394;2022-09-09T14:12:15;18.33;18.00;10.00
65574;PMS5003;52216;54.942;73.394;2022-09-09T14:15:18;22.50;21.50;12.00
65574;PMS5003;52216;54.942;73.394;2022-09-09T14:18:22;23.80;22.60;13.40
65574;PMS5003;52216;54.942;73.394;2022-09-09T14:21:27;31.50;27.75;17.75
65574;PMS5003;52216;54.942;73.394;2022-09-09T14:24:35;33.50;30.00;20.00
65574;PMS5003;52216;54.942;73.394;2022-09-09T14:27:36;37.75;32.50;20.50
65574;PMS5003;52216;54.942;73.394;2022-09-09T14:30:42;41.75;34.50;22.50
65574;PMS5003;52216;54.942;73.394;2022-09-09T14:33:46;41.00;34.00;24.00
65574;PMS5003;52216;54.942;73.394;2022-09-09T14:36:51;41.80;34.20;22.40
65574;PMS5003;52216;54.942;73.394;2022-09-09T14:39:53;41.25;35.00;22.00
65574;PMS5003;52216;54.942;73.394;2022-09-09T14:42:56;40.60;34.00;22.00
65574;PMS5003;52216;54.942;73.394;2022-09-09T14:46:08;40.50;33.50;22.00
65574;PMS5003;52216;54.942;73.394;2022-09-09T14:49:10;40.75;34.25;22.00
65574;PMS5003;52216;54.942;73.394;2022-09-09T14:52:22;39.60;33.60;23.40
65574;PMS5003;52216;54.942;73.394;2022-09-09T14:55:24;37.50;32.00;22.00
65574;PMS5003;52216;54.942;73.394;2022-09-09T14:58:37;37.60;33.00;21.00
65574;PMS5003;52216;54.942;73.394;2022-09-09T15:01:42;34.50;31.50;20.50
65574;PMS5003;52216;54.942;73.394;2022-09-09T15:04:45;34.60;30.60;20.20
65574;PMS5003;52216;54.942;73.394;2022-09-09T15:07:48;39.00;32.80;21.00
65574;PMS5003;52216;54.942;73.394;2022-09-09T15:10:58;38.60;32.60;22.00
65574;PMS5003;52216;54.942;73.394;2022-09-09T15:13:59;37.50;31.50;21.00
65574;PMS5003;52216;54.942;73.394;2022-09-09T15:17:02;37.50;32.25;21.00
65574;PMS5003;52216;54.942;73.394;2022-09-09T15:20:04;36.67;31.00;21.00
65574;PMS5003;52216;54.942;73.394;2022-09-09T15:23:13;36.75;31.00;21.00
65574;PMS5003;52216;54.942;73.394;2022-09-09T15:26:15;36.75;32.00;22.00
65574;PMS5003;52216;54.942;73.394;2022-09-09T15:29:18;37.00;31.00;21.00
65574;PMS5003;52216;54.942;73.394;2022-09-09T15:32:20;40.00;32.00;21.00
65574;PMS5003;52216;54.942;73.394;2022-09-09T15:35:24;38.20;32.00;21.00
65574;PMS5003;52216;54.942;73.394;2022-09-09T15:38:26;38.00;33.00;22.00
65574;PMS5003;52216;54.942;73.394;2022-09-09T15:41:33;39.00;32.50;21.50
65574;PMS5003;52216;54.942;73.394;2022-09-09T15:44:39;37.67;32.00;21.67
65574;PMS5003;52216;54.942;73.394;2022-09-09T15:47:44;41.00;34.00;23.00
65574;PMS5003;52216;54.942;73.394;2022-09-09T15:50:53;40.40;33.00;22.00
65574;PMS5003;52216;54.942;73.394;2022-09-09T15:54:03;39.75;33.00;21.00
65574;PMS5003;52216;54.942;73.394;2022-09-09T15:57:17;39.75;32.00;20.75
65574;PMS5003;52216;54.942;73.394;2022-09-09T16:00:19;39.00;33.25;20.50
65574;PMS5003;52216;54.942;73.394;2022-09-09T16:03:21;41.00;35.00;21.75
65574;PMS5003;52216;54.942;73.394;2022-09-09T16:06:28;44.00;35.00;23.00
65574;PMS5003;52216;54.942;73.394;2022-09-09T16:09:35;42.50;35.25;24.00
65574;PMS5003;52216;54.942;73.394;2022-09-09T16:12:48;45.50;36.00;24.00
65574;PMS5003;52216;54.942;73.394;2022-09-09T16:15:58;50.60;40.20;26.00
65574;PMS5003;52216;54.942;73.394;2022-09-09T16:19:07;52.00;41.25;26.50
65574;PMS5003;52216;54.942;73.394;2022-09-09T16:22:16;53.25;42.50;27.50
65574;PMS5003;52216;54.942;73.394;2022-09-09T16:25:19;57.25;45.50;29.00
65574;PMS5003;52216;54.942;73.394;2022-09-09T16:28:22;58.00;46.50;30.00
65574;PMS5003;52216;54.942;73.394;2022-09-09T16:31:34;58.75;46.00;30.00
65574;PMS5003;52216;54.942;73.394;2022-09-09T16:34:42;64.50;53.50;34.25
65574;PMS5003;52216;54.942;73.394;2022-09-09T16:37:44;71.75;66.25;41.75
65574;PMS5003;52216;54.942;73.394;2022-09-09T16:40:47;79.00;72.75;47.25
65574;PMS5003;52216;54.942;73.394;2022-09-09T16:43:52;83.75;77.50;48.50
65574;PMS5003;52216;54.942;73.394;2022-09-09T16:46:55;78.67;73.00;46.00
65574;PMS5003;52216;54.942;73.394;2022-09-09T16:49:57;78.50;73.50;46.00
65574;PMS5003;52216;54.942;73.394;2022-09-09T16:53:00;73.00;69.75;43.25
65574;PMS5003;52216;54.942;73.394;2022-09-09T16:56:09;72.60;67.00;41.40
65574;PMS5003;52216;54.942;73.394;2022-09-09T16:59:14;69.00;61.75;40.25
65574;PMS5003;52216;54.942;73.394;2022-09-09T17:02:18;74.00;67.20;42.60
65574;PMS5003;52216;54.942;73.394;2022-09-09T17:05:21;83.25;77.00;47.75
65574;PMS5003;52216;54.942;73.394;2022-09-09T17:08:34;88.25;81.25;51.25
65574;PMS5003;52216;54.942;73.394;2022-09-09T17:11:42;94.00;85.00;53.00
65574;PMS5003;52216;54.942;73.394;2022-09-09T17:14:49;96.00;86.33;53.00
65574;PMS5003;52216;54.942;73.394;2022-09-09T17:17:54;92.00;84.80;51.80
65574;PMS5003;52216;54.942;73.394;2022-09-09T17:21:04;90.00;82.80;51.00
65574;PMS5003;52216;54.942;73.394;2022-09-09T17:24:18;95.00;86.00;54.60
65574;PMS5003;52216;54.942;73.394;2022-09-09T17:27:21;95.25;87.50;56.00
65574;PMS5003;52216;54.942;73.394;2022-09-09T17:30:24;102.00;91.60;56.00
65574;PMS5003;52216;54.942;73.394;2022-09-09T17:33:33;92.50;84.75;52.75
65574;PMS5003;52216;54.942;73.394;2022-09-09T17:36:36;89.67;79.33;49.00
65574;PMS5003;52216;54.942;73.394;2022-09-09T17:39:43;92.67;82.00;51.00
65574;PMS5003;52216;54.942;73.394;2022-09-09T17:42:46;92.00;84.00;50.67
65574;PMS5003;52216;54.942;73.394;2022-09-09T17:46:06;91.00;83.00;52.00
65574;PMS5003;52216;54.942;73.394;2022-09-09T17:49:09;83.00;75.00;47.00
65574;PMS5003;52216;54.942;73.394;2022-09-09T17:52:12;90.67;80.33;49.33
65574;PMS5003;52216;54.942;73.394;2022-09-09T17:55:14;98.33;86.33;53.67
65574;PMS5003;52216;54.942;73.394;2022-09-09T17:58:22;99.67;88.33;56.67
65574;PMS5003;52216;54.942;73.394;2022-09-09T18:01:38;99.80;90.60;57.60
65574;PMS5003;52216;54.942;73.394;2022-09-09T18:04:51;98.75;90.75;57.25
65574;PMS5003;52216;54.942;73.394;2022-09-09T18:07:53;96.00;88.67;56.00
65574;PMS5003;52216;54.942;73.394;2022-09-09T18:10:56;91.33;83.00;53.00
65574;PMS5003;52216;54.942;73.394;2022-09-09T18:14:03;93.00;85.33;52.67
65574;PMS5003;52216;54.942;73.394;2022-09-09T18:17:15;89.33;82.67;50.67
65574;PMS5003;52216;54.942;73.394;2022-09-09T18:20:17;88.67;83.00;51.67
65574;PMS5003;52216;54.942;73.394;2022-09-09T18:23:32;91.00;83.67;52.33
65574;PMS5003;52216;54.942;73.394;2022-09-09T18:26:40;90.33;80.67;52.00
65574;PMS5003;52216;54.942;73.394;2022-09-09T18:29:47;86.33;80.67;52.00
65574;PMS5003;52216;54.942;73.394;2022-09-09T18:32:59;86.67;81.67;51.67
65574;PMS5003;52216;54.942;73.394;2022-09-09T18:36:09;86.67;81.67;51.00
65574;PMS5003;52216;54.942;73.394;2022-09-09T18:39:13;89.67;79.00;49.00
65574;PMS5003;52216;54.942;73.394;2022-09-09T18:42:26;80.00;73.33;47.33
65574;PMS5003;52216;54.942;73.394;2022-09-09T18:45:30;82.20;75.60;49.00
65574;PMS5003;52216;54.942;73.394;2022-09-09T18:48:36;82.00;77.00;49.00
65574;PMS5003;52216;54.942;73.394;2022-09-09T18:51:40;80.40;74.00;46.60
65574;PMS5003;52216;54.942;73.394;2022-09-09T18:54:49;80.00;72.75;47.00
65574;PMS5003;52216;54.942;73.394;2022-09-09T18:57:51;79.00;73.00;46.00
65574;PMS5003;52216;54.942;73.394;2022-09-09T19:00:54;76.67;71.00;45.33
65574;PMS5003;52216;54.942;73.394;2022-09-09T19:03:58;76.60;71.20;46.20
65574;PMS5003;52216;54.942;73.394;2022-09-09T19:07:11;80.75;74.25;46.50
65574;PMS5003;52216;54.942;73.394;2022-09-09T19:10:13;79.67;76.67;47.00
65574;PMS5003;52216;54.942;73.394;2022-09-09T19:13:26;78.60;71.60;46.00
65574;PMS5003;52216;54.942;73.394;2022-09-09T19:16:34;81.00;72.00;47.00
65574;PMS5003;52216;54.942;73.394;2022-09-09T19:19:47;80.75;72.00;44.75
65574;PMS5003;52216;54.942;73.394;2022-09-09T19:22:52;81.00;73.00;46.00
65574;PMS5003;52216;54.942;73.394;2022-09-09T19:26:04;75.00;68.67;44.00
65574;PMS5003;52216;54.942;73.394;2022-09-09T19:29:18;72.80;68.40;42.80
65574;PMS5003;52216;54.942;73.394;2022-09-09T19:32:21;73.75;67.00;43.75
65574;PMS5003;52216;54.942;73.394;2022-09-09T19:35:23;71.50;65.75;41.25
65574;PMS5003;52216;54.942;73.394;2022-09-09T19:38:28;66.75;61.75;39.50
65574;PMS5003;52216;54.942;73.394;2022-09-09T19:41:35;67.75;65.00;41.00
65574;PMS5003;52216;54.942;73.394;2022-09-09T19:44:38;68.75;63.75;41.25
65574;PMS5003;52216;54.942;73.394;2022-09-09T19:47:43;65.33;58.17;38.33